Aérodrome :
LOGIN :

S'inscrire | Disclaimer

   EN    FR    IT 

 










Légende :    VFR   VFR Marginal   IFR   IFR Intensif   IFR Très Intensif
Visi : 
Plafond : 
>= 8 km
>= 3000ft
5 à 8 km
1000 à 3000 ft
1500m à 5 km
500 à 1000 ft
800 à 1500m
200 à 500 ft
< 800m
< 200 ft
Symboles :   Orages  Brouillard  Fortes neiges  Fortes précipitations  Vent > 20 kt
SIGMETs :   Divers  Orages  Givrage  Turbulence  Onde Orograph.  Cendres Volcan.






- Altitude de l'aérodrome : 327 ft
- Code IATA : BHX


EGBB - Birmingham

DERNIER METAR :
  • 250550Z AUTO 18004KT 9999 NCD 09/05 Q1035

METARs EXPIRÉS :
  • 250520Z AUTO 14004KT 9999 NCD 07/05 Q1035
  • 250450Z AUTO 13002KT 9999 NCD 05/03 Q1035
  • 250420Z AUTO VRB03KT 9999 NCD 05/03 Q1034
  • 250350Z AUTO VRB02KT 9999 NCD 06/03 Q1034
  • 250320Z AUTO VRB03KT 9999 NCD 06/02 Q1034

TAF TAF EGBB
Valide du 25 à 06h jusqu'au 26 à 06h UTC


250456Z 2506/2606 22005KT 9999 FEW040
ATIS : +44 121 780 0910



MET'MAP, la Météo Aéronautique d'un coup d'oeil ! - Copyright ORBIFLY Décembre 2007 - Disclaimer

ORBIFLY MET'MAP TEAM :

Programmation & Développement : Alexandra Zaïnal
Sur une idée originale de : Baudouin d'Aumeries
Assistance à la programmation : Marc-Olivier Méhu
Soutien technique & logistique : Manuel Goepfert

Contact : metmap@orbifly.com




SOURCES & CREDITS :

   NOAA